Torbay, Canada
Current Conditions -  °F | °C
As of 4:00 PM on Saturday 20 Dec 2014 (Local Time) from CYYT Reporting Station
Scattered Clouds Scattered Clouds  
Wind Chill: 20°   Ceiling: Unl
Heat Index: 32°   Visibility: 15mi
Dew Point: 25°   Wind: 20mph
Humidity: 75%   Direction: 40°NE
Pressure: 30.11"   Gusts: 28mph
Location:  47.66°N, 52.73°W
Report Text: CYYT 201900Z 04017G24KT 15SM SCT020 M00/M04 A3011 RMK SC3 SLP203
Loading
Personal Weather Stations






























Interactive Weather Map New forecast layout! Learn more

10-Day Weather Forecast

Advertisements
Track Severe Weather on mobile